createdAt,value
2022-08-23T00:02:01.347Z,17.10
2022-08-23T00:04:35.784Z,17.10
2022-08-23T00:07:05.456Z,17.30
2022-08-23T00:09:33.261Z,17.20
2022-08-23T00:12:21.747Z,17.20
2022-08-23T00:14:53.229Z,17.30
2022-08-23T00:17:31.105Z,17.30
2022-08-23T00:20:07.013Z,17.00
2022-08-23T00:22:35.550Z,16.60
2022-08-23T00:25:04.153Z,16.20
2022-08-23T00:27:32.474Z,16.10
2022-08-23T00:30:00.555Z,16.10
2022-08-23T00:32:32.159Z,16.30
2022-08-23T00:35:01.125Z,16.40
2022-08-23T00:37:32.289Z,16.40
2022-08-23T00:40:01.094Z,16.40
2022-08-23T00:43:06.220Z,16.50
2022-08-23T00:46:03.176Z,16.70
2022-08-23T00:48:32.267Z,16.80
2022-08-23T00:51:14.694Z,16.60
2022-08-23T00:53:48.366Z,16.20
2022-08-23T00:56:21.716Z,16.10
2022-08-23T00:58:49.758Z,15.90
2022-08-23T01:01:18.096Z,15.80
2022-08-23T01:03:57.114Z,15.80
2022-08-23T01:06:55.560Z,15.90
2022-08-23T01:09:23.190Z,16.10
2022-08-23T01:11:57.911Z,16.20
2022-08-23T01:14:33.637Z,16.00
2022-08-23T01:17:24.117Z,16.40
2022-08-23T01:20:22.896Z,16.40
2022-08-23T01:23:06.453Z,16.40
2022-08-23T01:25:35.019Z,16.30
2022-08-23T01:28:02.552Z,16.30
2022-08-23T01:30:32.850Z,16.30
2022-08-23T01:33:03.196Z,16.40
2022-08-23T01:35:35.913Z,16.40
2022-08-23T01:38:03.901Z,16.50
2022-08-23T01:40:32.015Z,16.60
2022-08-23T01:43:00.181Z,16.40
2022-08-23T01:45:28.249Z,16.50
2022-08-23T01:47:55.919Z,16.60
2022-08-23T01:50:23.863Z,16.60
2022-08-23T01:52:51.812Z,16.80
2022-08-23T01:55:21.166Z,16.90
2022-08-23T01:57:54.917Z,16.90
2022-08-23T02:00:25.824Z,16.80
2022-08-23T02:02:53.479Z,16.70
2022-08-23T02:05:21.223Z,16.70
2022-08-23T02:07:49.313Z,16.20
2022-08-23T02:10:17.108Z,17.00
2022-08-23T02:12:44.905Z,16.80
2022-08-23T02:15:13.108Z,16.70
2022-08-23T02:17:40.781Z,16.70
2022-08-23T02:20:09.237Z,16.60
2022-08-23T02:22:39.137Z,16.60
2022-08-23T02:25:07.624Z,16.70
2022-08-23T02:27:35.367Z,16.80
2022-08-23T02:30:04.073Z,16.90
2022-08-23T02:32:32.625Z,16.90
2022-08-23T02:35:05.842Z,17.10
2022-08-23T02:37:34.789Z,17.10
2022-08-23T02:40:04.618Z,17.20
2022-08-23T02:42:32.258Z,17.20
2022-08-23T02:45:00.080Z,17.30
2022-08-23T02:47:27.596Z,17.30
2022-08-23T02:49:55.206Z,17.20
2022-08-23T02:52:22.708Z,17.10
2022-08-23T02:54:50.097Z,16.90
2022-08-23T02:57:20.719Z,16.70
2022-08-23T02:59:48.174Z,16.50
2022-08-23T03:02:15.754Z,17.20
2022-08-23T03:04:43.482Z,16.40
2022-08-23T03:07:11.077Z,16.60
2022-08-23T03:09:38.671Z,16.40
2022-08-23T03:12:06.192Z,16.40
2022-08-23T03:14:33.627Z,16.40
2022-08-23T03:17:07.856Z,16.30
2022-08-23T03:19:35.801Z,16.40
2022-08-23T03:22:03.243Z,16.20
2022-08-23T03:24:30.952Z,16.30
2022-08-23T03:26:58.296Z,16.40
2022-08-23T03:29:25.789Z,16.60
2022-08-23T03:31:53.912Z,16.80
2022-08-23T03:34:21.978Z,16.80
2022-08-23T03:36:49.436Z,16.60
2022-08-23T03:39:16.938Z,16.60
2022-08-23T03:41:44.459Z,16.50
2022-08-23T03:44:11.847Z,16.60
2022-08-23T03:46:39.339Z,16.50
2022-08-23T03:49:06.817Z,16.40
2022-08-23T03:51:36.265Z,16.40
2022-08-23T03:54:03.946Z,16.40
2022-08-23T03:56:40.715Z,16.60
2022-08-23T03:59:11.746Z,16.60
2022-08-23T04:01:39.471Z,16.30
2022-08-23T04:04:06.932Z,16.60
2022-08-23T04:06:34.454Z,16.60
2022-08-23T04:09:01.949Z,16.50
2022-08-23T04:11:29.449Z,16.50
2022-08-23T04:13:57.028Z,16.70
2022-08-23T04:16:24.508Z,16.60
2022-08-23T04:18:51.853Z,16.70
2022-08-23T04:21:22.695Z,16.70
2022-08-23T04:23:50.717Z,16.70
2022-08-23T04:26:18.409Z,16.80
2022-08-23T04:28:47.789Z,16.80
2022-08-23T04:31:16.241Z,16.60
2022-08-23T04:33:45.606Z,16.80
2022-08-23T04:36:20.243Z,16.50
2022-08-23T04:38:51.560Z,16.60
2022-08-23T04:41:38.581Z,16.50
2022-08-23T04:44:06.019Z,16.50
2022-08-23T04:46:33.625Z,16.50
2022-08-23T04:49:01.688Z,16.40
2022-08-23T04:51:29.448Z,16.50
2022-08-23T04:53:57.180Z,16.50
2022-08-23T04:56:24.837Z,16.60
2022-08-23T04:58:53.472Z,16.50
2022-08-23T05:01:40.059Z,16.50
2022-08-23T05:04:08.363Z,16.70
2022-08-23T05:06:38.247Z,16.80
2022-08-23T05:09:17.126Z,16.00
2022-08-23T05:11:51.733Z,17.00
2022-08-23T05:14:24.419Z,16.90
2022-08-23T05:16:52.314Z,17.00
2022-08-23T05:19:26.210Z,16.90
2022-08-23T05:21:57.026Z,17.20
2022-08-23T05:24:24.975Z,17.30
2022-08-23T05:26:52.680Z,17.40
2022-08-23T05:29:22.020Z,17.40
2022-08-23T05:31:49.837Z,17.30
2022-08-23T05:34:22.179Z,17.40
2022-08-23T05:36:55.595Z,17.40
2022-08-23T05:39:26.636Z,17.50
2022-08-23T05:42:04.064Z,17.40
2022-08-23T05:44:38.856Z,17.50
2022-08-23T05:47:11.537Z,17.70
2022-08-23T05:49:40.412Z,17.80
2022-08-23T05:52:23.120Z,17.90
2022-08-23T06:01:18.294Z,18.00
2022-08-23T06:03:46.170Z,18.30
2022-08-23T06:06:16.286Z,18.50
2022-08-23T06:08:48.700Z,18.60
2022-08-23T06:11:25.442Z,18.80
2022-08-23T06:14:05.520Z,18.80
2022-08-23T06:16:42.936Z,18.90
2022-08-23T06:19:11.222Z,18.90
2022-08-23T06:21:38.987Z,19.10
2022-08-23T06:24:07.507Z,19.10
2022-08-23T06:26:38.852Z,19.30
2022-08-23T06:29:11.403Z,19.50
2022-08-23T06:31:48.036Z,19.50
2022-08-23T06:34:35.769Z,19.80
2022-08-23T06:37:13.757Z,20.00
2022-08-23T06:39:42.502Z,20.20
2022-08-23T06:42:37.408Z,20.30
2022-08-23T06:52:09.018Z,20.80
2022-08-23T06:54:40.547Z,20.90
2022-08-23T06:57:28.187Z,21.10
2022-08-23T07:00:05.478Z,21.00
2022-08-23T07:02:39.083Z,21.30
2022-08-23T07:05:07.862Z,21.20
2022-08-23T07:07:39.691Z,20.60
2022-08-23T07:10:12.057Z,21.40
2022-08-23T07:27:32.006Z,22.30
2022-08-23T07:33:03.547Z,22.50
2022-08-23T07:35:40.198Z,22.40
2022-08-23T07:41:24.457Z,22.70
2022-08-23T07:43:55.647Z,23.80
2022-08-23T07:49:51.360Z,23.10
2022-08-23T07:58:39.757Z,23.40
2022-08-23T08:01:18.029Z,23.50
2022-08-23T08:03:52.681Z,23.60
2022-08-23T08:06:28.924Z,23.70
2022-08-23T08:09:03.820Z,23.70
2022-08-23T08:11:35.371Z,23.60
2022-08-23T08:14:09.355Z,23.70
2022-08-23T08:19:45.160Z,23.90
2022-08-23T08:25:20.140Z,23.80
2022-08-23T08:30:27.847Z,24.00
2022-08-23T08:38:48.459Z,24.40
2022-08-23T08:51:07.146Z,24.90
2022-08-23T08:53:46.072Z,24.90
2022-08-23T08:56:32.472Z,25.00
2022-08-23T08:59:16.921Z,25.00
2022-08-23T09:01:45.006Z,25.00
2022-08-23T09:04:14.063Z,25.00
2022-08-23T09:07:03.448Z,25.20
2022-08-23T09:10:03.762Z,25.20
2022-08-23T09:13:03.696Z,25.30
2022-08-23T09:15:42.780Z,25.40
2022-08-23T09:18:13.917Z,25.40
2022-08-23T09:20:43.800Z,27.20
2022-08-23T09:23:26.604Z,25.40
2022-08-23T09:26:01.267Z,24.90
2022-08-23T09:28:35.353Z,25.00
2022-08-23T09:31:11.755Z,24.80
2022-08-23T09:33:49.230Z,24.80
2022-08-23T09:36:23.043Z,23.70
2022-08-23T09:41:47.683Z,24.30
2022-08-23T09:44:45.089Z,24.20
2022-08-23T09:50:54.969Z,24.20
2022-08-23T09:53:44.226Z,24.10
2022-08-23T09:56:26.348Z,23.50
2022-08-23T09:59:22.274Z,24.30
2022-08-23T10:01:59.614Z,24.40
2022-08-23T10:04:55.121Z,24.50
2022-08-23T10:07:42.777Z,24.50
2022-08-23T10:10:29.191Z,24.70
2022-08-23T10:13:02.305Z,25.10
2022-08-23T10:16:01.119Z,25.20
2022-08-23T10:18:47.989Z,25.80
2022-08-23T10:21:42.555Z,25.80
2022-08-23T10:24:37.056Z,26.10
2022-08-23T10:27:48.208Z,26.10
2022-08-23T10:30:19.887Z,26.00
2022-08-23T10:33:10.566Z,26.00
2022-08-23T10:36:08.618Z,26.60
2022-08-23T10:39:18.185Z,27.00
2022-08-23T10:42:08.624Z,27.10
2022-08-23T10:44:52.773Z,27.30
2022-08-23T10:58:26.047Z,27.00
2022-08-23T11:00:58.080Z,26.70
2022-08-23T11:03:52.447Z,26.30
2022-08-23T11:06:38.282Z,25.90
2022-08-23T11:09:08.624Z,24.90
2022-08-23T11:11:45.199Z,25.40
2022-08-23T11:14:26.408Z,25.40
2022-08-23T11:17:03.313Z,25.30
2022-08-23T11:19:57.522Z,25.50
2022-08-23T11:22:26.329Z,25.60
2022-08-23T11:25:06.030Z,25.70
2022-08-23T11:27:41.064Z,25.90
2022-08-23T11:30:34.569Z,26.00
2022-08-23T11:33:27.305Z,26.20
2022-08-23T11:36:10.371Z,26.50
2022-08-23T11:38:43.762Z,26.50
2022-08-23T11:41:20.376Z,26.40
2022-08-23T11:44:11.027Z,26.60
2022-08-23T11:47:01.072Z,26.80
2022-08-23T11:49:31.404Z,27.00
2022-08-23T11:52:16.365Z,27.00
2022-08-23T11:55:24.284Z,27.30
2022-08-23T11:58:14.376Z,27.50
2022-08-23T12:01:08.607Z,27.60
2022-08-23T12:03:51.642Z,27.80
2022-08-23T12:06:58.481Z,27.80
2022-08-23T12:09:26.949Z,27.80
2022-08-23T12:12:25.613Z,27.60
2022-08-23T12:14:57.629Z,27.70
2022-08-23T12:17:28.634Z,28.00
2022-08-23T12:20:16.404Z,28.20
2022-08-23T12:22:53.908Z,28.10
2022-08-23T12:25:23.119Z,27.90
2022-08-23T12:27:57.553Z,27.60
2022-08-23T12:30:36.254Z,27.30
2022-08-23T12:33:10.787Z,27.00
2022-08-23T12:35:53.718Z,27.00
2022-08-23T12:38:40.195Z,26.80
2022-08-23T12:41:30.200Z,26.80
2022-08-23T12:44:08.538Z,27.00
2022-08-23T12:46:45.355Z,27.00
2022-08-23T12:49:34.617Z,26.90
2022-08-23T12:52:12.344Z,26.80
2022-08-23T12:54:41.649Z,26.70
2022-08-23T12:57:27.736Z,26.60
2022-08-23T13:00:20.090Z,26.60
2022-08-23T13:02:50.419Z,26.60
2022-08-23T13:05:43.774Z,26.80
2022-08-23T13:08:19.565Z,27.00
2022-08-23T13:10:55.832Z,27.10
2022-08-23T13:13:26.945Z,27.20
2022-08-23T13:16:00.671Z,27.10
2022-08-23T13:18:33.538Z,27.00
2022-08-23T13:21:25.512Z,26.90
2022-08-23T13:24:38.522Z,26.70
2022-08-23T13:27:12.184Z,26.60
2022-08-23T13:30:09.333Z,26.50
2022-08-23T13:32:47.221Z,26.50
2022-08-23T13:35:38.117Z,26.60
2022-08-23T13:38:18.510Z,26.40
2022-08-23T13:41:02.455Z,26.20
2022-08-23T13:43:38.327Z,26.30
2022-08-23T13:46:24.576Z,26.10
2022-08-23T13:49:24.842Z,26.10
2022-08-23T13:52:33.449Z,26.40
2022-08-23T13:54:51.232Z,25.90
2022-08-23T13:57:21.845Z,25.90
2022-08-23T13:59:54.712Z,25.80
2022-08-23T14:02:24.169Z,25.80
2022-08-23T14:04:52.244Z,25.80
2022-08-23T14:07:20.349Z,25.80
2022-08-23T14:09:50.983Z,25.70
2022-08-23T14:12:29.630Z,25.70
2022-08-23T14:14:58.482Z,25.70
2022-08-23T14:17:26.417Z,25.70
2022-08-23T14:20:31.926Z,25.40
2022-08-23T14:22:41.541Z,25.50
2022-08-23T14:25:10.911Z,25.50
2022-08-23T14:27:44.692Z,25.50
2022-08-23T14:30:29.511Z,25.30
2022-08-23T14:32:58.932Z,25.30
2022-08-23T14:35:52.717Z,25.40
2022-08-23T14:38:23.228Z,25.30
2022-08-23T14:40:58.799Z,25.70
2022-08-23T14:43:28.247Z,25.50
2022-08-23T14:46:06.586Z,25.40
2022-08-23T14:48:44.771Z,25.40
2022-08-23T14:51:24.540Z,25.30
2022-08-23T14:53:53.190Z,25.30
2022-08-23T14:56:22.038Z,25.20
2022-08-23T14:58:51.113Z,25.20
2022-08-23T15:01:20.168Z,25.20
2022-08-23T15:03:49.433Z,25.10
2022-08-23T15:06:18.939Z,25.10
2022-08-23T15:08:47.041Z,25.80
2022-08-23T15:14:03.873Z,25.00
2022-08-23T15:16:31.650Z,24.70
2022-08-23T15:19:00.003Z,24.90
2022-08-23T15:21:28.662Z,24.90
2022-08-23T15:23:56.459Z,24.90
2022-08-23T15:26:27.194Z,24.90
2022-08-23T15:28:55.199Z,26.30
2022-08-23T15:31:22.801Z,25.20
2022-08-23T15:33:51.346Z,25.20
2022-08-23T15:36:19.940Z,25.10
2022-08-23T15:38:49.280Z,25.10
2022-08-23T15:41:19.456Z,25.10
2022-08-23T15:43:47.289Z,25.00
2022-08-23T15:46:21.883Z,24.80
2022-08-23T15:49:02.508Z,24.60
2022-08-23T15:51:30.314Z,24.50
2022-08-23T15:53:58.366Z,24.60
2022-08-23T15:56:32.093Z,24.50
2022-08-23T15:58:59.962Z,24.40
2022-08-23T16:01:30.472Z,24.30
2022-08-23T16:03:58.055Z,24.20
2022-08-23T16:06:25.605Z,24.10
2022-08-23T16:08:53.780Z,24.00
2022-08-23T16:11:22.949Z,24.10
2022-08-23T16:13:55.233Z,24.10
2022-08-23T16:16:31.076Z,24.00
2022-08-23T16:19:00.270Z,24.00
2022-08-23T16:21:29.582Z,23.90
2022-08-23T16:23:58.074Z,23.90
2022-08-23T16:26:34.579Z,23.90
2022-08-23T16:29:06.248Z,23.90
2022-08-23T16:31:38.422Z,23.90
2022-08-23T16:34:09.818Z,23.90
2022-08-23T16:36:40.308Z,23.90
2022-08-23T16:39:08.991Z,23.90
2022-08-23T16:41:36.618Z,23.90
2022-08-23T16:44:04.506Z,23.80
2022-08-23T16:46:32.464Z,23.70
2022-08-23T16:49:00.084Z,23.70
2022-08-23T16:51:27.640Z,23.60
2022-08-23T16:54:03.055Z,23.60
2022-08-23T16:56:32.413Z,23.00
2022-08-23T16:59:00.364Z,23.50
2022-08-23T17:01:42.605Z,23.40
2022-08-23T17:04:10.203Z,23.40
2022-08-23T17:06:37.783Z,23.30
2022-08-23T17:09:05.354Z,23.30
2022-08-23T17:11:33.041Z,23.20
2022-08-23T17:14:04.928Z,23.10
2022-08-23T17:16:33.799Z,23.10
2022-08-23T17:19:01.807Z,23.00
2022-08-23T17:21:29.504Z,22.90
2022-08-23T17:23:57.397Z,22.90
2022-08-23T17:26:25.290Z,22.90
2022-08-23T17:28:53.096Z,22.80
2022-08-23T17:31:21.269Z,22.90
2022-08-23T17:33:48.996Z,22.80
2022-08-23T17:36:27.747Z,22.90
2022-08-23T17:38:57.399Z,22.90
2022-08-23T17:41:27.593Z,22.80
2022-08-23T17:43:56.380Z,22.80
2022-08-23T17:46:25.073Z,22.80
2022-08-23T17:48:52.614Z,22.80
2022-08-23T17:51:20.097Z,22.70
2022-08-23T17:53:47.759Z,22.70
2022-08-23T17:56:16.156Z,22.70
2022-08-23T17:58:44.117Z,22.70
2022-08-23T18:01:11.880Z,22.70
2022-08-23T18:03:39.480Z,22.70
2022-08-23T18:06:17.147Z,22.80
2022-08-23T18:08:45.861Z,22.60
2022-08-23T18:11:14.583Z,22.50
2022-08-23T18:13:42.270Z,22.50
2022-08-23T18:16:09.803Z,22.60
2022-08-23T18:18:38.076Z,22.50
2022-08-23T18:21:07.885Z,22.50
2022-08-23T18:23:35.821Z,22.50
2022-08-23T18:26:29.841Z,22.40
2022-08-23T18:28:58.031Z,22.40
2022-08-23T18:31:27.772Z,22.40
2022-08-23T18:34:00.184Z,22.30
2022-08-23T18:36:29.998Z,22.20
2022-08-23T18:38:57.641Z,22.20
2022-08-23T18:41:25.369Z,22.20
2022-08-23T18:43:52.839Z,22.20
2022-08-23T18:46:20.921Z,22.20
2022-08-23T18:48:53.583Z,22.20
2022-08-23T18:51:22.555Z,22.10
2022-08-23T18:53:50.055Z,22.10
2022-08-23T18:56:17.832Z,22.10
2022-08-23T18:58:46.055Z,22.10
2022-08-23T19:01:23.621Z,22.00
2022-08-23T19:03:52.155Z,22.10
2022-08-23T19:06:20.169Z,22.10
2022-08-23T19:08:48.477Z,22.00
2022-08-23T19:11:16.827Z,22.00
2022-08-23T19:13:45.013Z,22.00
2022-08-23T19:16:14.384Z,21.90
2022-08-23T19:18:47.581Z,21.90
2022-08-23T19:21:18.502Z,21.80
2022-08-23T19:23:46.978Z,21.70
2022-08-23T19:26:16.139Z,21.80
2022-08-23T19:28:44.436Z,21.70
2022-08-23T19:31:12.268Z,21.80
2022-08-23T19:33:40.718Z,21.80
2022-08-23T19:36:18.966Z,21.70
2022-08-23T19:38:57.027Z,21.80
2022-08-23T19:41:24.663Z,21.80
2022-08-23T19:43:53.236Z,21.80
2022-08-23T19:46:20.764Z,21.80
2022-08-23T19:48:50.121Z,21.70
2022-08-23T19:51:19.487Z,21.60
2022-08-23T19:54:04.572Z,21.50
2022-08-23T19:56:47.041Z,21.50
2022-08-23T19:59:23.745Z,21.50
2022-08-23T20:01:53.334Z,21.50
2022-08-23T20:04:22.726Z,21.50
2022-08-23T20:06:50.871Z,21.60
2022-08-23T20:09:20.658Z,21.60
2022-08-23T20:11:49.409Z,21.60
2022-08-23T20:14:16.890Z,21.30
2022-08-23T20:16:44.612Z,21.60
2022-08-23T20:19:12.615Z,21.60
2022-08-23T20:21:41.237Z,21.50
2022-08-23T20:24:15.120Z,21.50
2022-08-23T20:26:49.893Z,21.40
2022-08-23T20:29:21.215Z,21.40
2022-08-23T20:31:55.495Z,21.40
2022-08-23T20:34:26.617Z,21.40
2022-08-23T20:36:56.585Z,21.40
2022-08-23T20:39:25.002Z,21.50
2022-08-23T20:41:53.592Z,21.50
2022-08-23T20:44:22.458Z,21.50
2022-08-23T20:46:53.930Z,21.50
2022-08-23T20:49:23.875Z,21.50
2022-08-23T20:51:51.914Z,21.50
2022-08-23T20:54:19.844Z,21.50
2022-08-23T20:56:51.306Z,21.50
2022-08-23T20:59:20.109Z,21.50
2022-08-23T21:01:50.605Z,21.50
2022-08-23T21:04:18.863Z,21.50
2022-08-23T21:06:50.100Z,21.50
2022-08-23T21:09:20.562Z,21.50
2022-08-23T21:11:51.611Z,21.50
2022-08-23T21:14:20.859Z,21.60
2022-08-23T21:16:48.813Z,21.60
2022-08-23T21:19:16.480Z,21.60
2022-08-23T21:21:44.374Z,21.50
2022-08-23T21:24:12.860Z,21.50
2022-08-23T21:26:41.622Z,21.50
2022-08-23T21:29:10.119Z,21.50
2022-08-23T21:31:38.244Z,21.50
2022-08-23T21:34:06.283Z,21.50
2022-08-23T21:36:34.602Z,21.50
2022-08-23T21:39:02.652Z,21.50
2022-08-23T21:41:38.732Z,21.40
2022-08-23T21:44:10.607Z,21.40
2022-08-23T21:46:38.672Z,21.50
2022-08-23T21:49:07.118Z,21.50
2022-08-23T21:51:35.436Z,21.50
2022-08-23T21:54:03.534Z,21.40
2022-08-23T21:56:31.511Z,21.30
2022-08-23T21:59:05.089Z,21.20
2022-08-23T22:01:36.501Z,21.20
2022-08-23T22:04:06.618Z,21.20
2022-08-23T22:06:35.516Z,21.20
2022-08-23T22:09:05.059Z,21.20
2022-08-23T22:11:32.694Z,21.20
2022-08-23T22:14:00.507Z,21.20
2022-08-23T22:16:28.302Z,21.20
2022-08-23T22:18:55.885Z,21.20
2022-08-23T22:21:23.674Z,21.20
2022-08-23T22:23:52.748Z,20.00
2022-08-23T22:26:20.290Z,21.10
2022-08-23T22:28:48.274Z,21.00
2022-08-23T22:31:16.026Z,21.00
2022-08-23T22:33:45.650Z,21.00
2022-08-23T22:36:19.120Z,20.90
2022-08-23T22:38:47.232Z,21.00
2022-08-23T22:41:20.427Z,21.00
2022-08-23T22:43:48.179Z,21.00
2022-08-23T22:46:15.900Z,20.90
2022-08-23T22:48:43.519Z,21.00
2022-08-23T22:51:20.072Z,21.00
2022-08-23T22:53:50.377Z,21.00
2022-08-23T22:56:22.265Z,21.00
2022-08-23T22:58:52.866Z,21.00
2022-08-23T23:01:36.718Z,21.00
2022-08-23T23:04:07.031Z,21.00
2022-08-23T23:06:35.925Z,21.20
2022-08-23T23:09:05.679Z,20.90
2022-08-23T23:11:34.896Z,20.90
2022-08-23T23:14:02.894Z,20.90
2022-08-23T23:16:30.778Z,20.90
2022-08-23T23:19:18.177Z,20.90
2022-08-23T23:21:48.411Z,20.90
2022-08-23T23:24:25.460Z,20.90
2022-08-23T23:26:53.137Z,20.90
2022-08-23T23:29:21.408Z,20.90
2022-08-23T23:31:49.235Z,20.90
2022-08-23T23:34:16.873Z,20.80
2022-08-23T23:36:44.849Z,20.80
2022-08-23T23:39:13.673Z,20.80
2022-08-23T23:41:42.144Z,20.90
2022-08-23T23:44:09.897Z,20.80
2022-08-23T23:46:37.376Z,20.90
2022-08-23T23:49:05.769Z,20.90
2022-08-23T23:51:34.209Z,20.90
2022-08-23T23:54:02.450Z,20.90
2022-08-23T23:56:31.339Z,20.80
2022-08-23T23:58:59.752Z,20.80
